createdAt,value
2023-04-24T00:01:47.121Z,1.00
2023-04-24T00:04:17.690Z,0.85
2023-04-24T00:06:50.643Z,1.30
2023-04-24T00:09:18.822Z,0.98
2023-04-24T00:11:49.635Z,1.92
2023-04-24T00:14:19.042Z,1.63
2023-04-24T00:16:49.702Z,1.40
2023-04-24T00:19:22.393Z,1.40
2023-04-24T00:21:53.357Z,2.63
2023-04-24T00:24:23.145Z,1.45
2023-04-24T00:26:52.489Z,1.55
2023-04-24T00:29:20.935Z,2.40
2023-04-24T00:31:50.567Z,2.55
2023-04-24T00:34:19.206Z,2.53
2023-04-24T00:36:50.081Z,2.30
2023-04-24T00:39:21.432Z,1.73
2023-04-24T00:41:53.089Z,2.30
2023-04-24T00:44:22.710Z,1.25
2023-04-24T00:46:56.714Z,1.30
2023-04-24T00:49:26.515Z,1.65
2023-04-24T00:51:57.125Z,2.47
2023-04-24T00:54:27.902Z,2.20
2023-04-24T00:56:57.323Z,1.55
2023-04-24T00:59:25.694Z,3.88
2023-04-24T01:01:57.029Z,2.58
2023-04-24T01:04:25.483Z,1.75
2023-04-24T01:06:56.116Z,4.43
2023-04-24T01:09:27.057Z,2.33
2023-04-24T01:11:57.207Z,2.05
2023-04-24T01:14:26.918Z,2.25
2023-04-24T01:16:56.559Z,1.33
2023-04-24T01:19:24.713Z,2.63
2023-04-24T01:21:56.660Z,1.75
2023-04-24T01:24:26.244Z,1.23
2023-04-24T01:26:56.069Z,3.13
2023-04-24T01:29:24.840Z,1.67
2023-04-24T01:31:54.493Z,1.55
2023-04-24T01:34:23.922Z,4.38
2023-04-24T01:36:52.094Z,2.22
2023-04-24T01:39:24.127Z,1.80
2023-04-24T01:41:55.917Z,1.10
2023-04-24T01:44:25.915Z,1.70
2023-04-24T01:46:55.181Z,1.90
2023-04-24T01:49:23.944Z,2.35
2023-04-24T01:51:53.312Z,1.30
2023-04-24T01:54:21.741Z,1.73
2023-04-24T01:56:50.932Z,1.45
2023-04-24T01:59:23.966Z,0.88
2023-04-24T02:01:54.550Z,0.75
2023-04-24T02:04:22.956Z,2.97
2023-04-24T02:06:53.685Z,1.50
2023-04-24T02:09:23.122Z,1.10
2023-04-24T02:11:54.022Z,1.58
2023-04-24T02:14:24.728Z,2.35
2023-04-24T02:16:54.394Z,4.13
2023-04-24T02:19:22.634Z,1.35
2023-04-24T02:21:53.849Z,1.95
2023-04-24T02:24:21.971Z,2.00
2023-04-24T02:26:50.147Z,2.35
2023-04-24T02:29:18.930Z,0.77
2023-04-24T02:31:48.737Z,2.15
2023-04-24T02:34:17.394Z,1.60
2023-04-24T02:39:17.549Z,1.73
2023-04-24T02:41:48.081Z,1.30
2023-04-24T02:44:18.681Z,2.10
2023-04-24T02:46:49.447Z,1.40
2023-04-24T02:49:18.525Z,2.00
2023-04-24T02:51:48.158Z,2.45
2023-04-24T02:54:17.617Z,1.35
2023-04-24T02:56:45.804Z,2.53
2023-04-24T02:59:15.474Z,1.42
2023-04-24T03:01:44.999Z,2.95
2023-04-24T03:04:14.826Z,2.60
2023-04-24T03:06:45.536Z,1.92
2023-04-24T03:09:13.729Z,2.63
2023-04-24T03:11:43.867Z,2.33
2023-04-24T03:14:13.318Z,2.60
2023-04-24T03:16:43.897Z,1.65
2023-04-24T03:19:12.235Z,3.45
2023-04-24T03:21:51.955Z,2.17
2023-04-24T03:24:21.750Z,2.15
2023-04-24T03:29:41.168Z,1.90
2023-04-24T03:32:12.241Z,1.30
2023-04-24T03:34:41.005Z,1.73
2023-04-24T03:37:15.168Z,1.80
2023-04-24T03:39:48.938Z,1.45
2023-04-24T03:42:19.727Z,4.22
2023-04-24T03:44:56.080Z,2.92
2023-04-24T03:47:30.894Z,1.55
2023-04-24T03:50:03.577Z,2.13
2023-04-24T03:52:36.495Z,1.45
2023-04-24T03:55:07.484Z,2.15
2023-04-24T03:57:40.843Z,1.80
2023-04-24T04:00:17.120Z,2.08
2023-04-24T04:02:52.924Z,2.30
2023-04-24T04:05:22.905Z,2.08
2023-04-24T04:07:53.787Z,1.42
2023-04-24T04:10:23.419Z,2.10
2023-04-24T04:12:52.819Z,1.88
2023-04-24T04:15:21.186Z,3.47
2023-04-24T04:17:51.924Z,1.63
2023-04-24T04:20:20.855Z,1.45
2023-04-24T04:22:51.800Z,1.45
2023-04-24T04:25:30.098Z,3.55
2023-04-24T04:28:00.550Z,3.05
2023-04-24T04:30:30.763Z,2.00
2023-04-24T04:33:05.419Z,1.98
2023-04-24T04:35:37.358Z,3.17
2023-04-24T04:38:10.646Z,3.67
2023-04-24T04:41:05.409Z,3.10
2023-04-24T04:43:36.985Z,4.10
2023-04-24T04:46:07.135Z,3.63
2023-04-24T04:48:49.008Z,2.65
2023-04-24T04:51:17.694Z,2.28
2023-04-24T04:53:50.093Z,2.30
2023-04-24T04:56:19.524Z,5.53
2023-04-24T04:58:49.168Z,4.10
2023-04-24T05:01:19.436Z,3.80
2023-04-24T05:03:51.413Z,4.38
2023-04-24T05:06:24.322Z,5.82
2023-04-24T05:08:59.365Z,6.97
2023-04-24T05:11:35.698Z,7.22
2023-04-24T05:14:06.305Z,6.10
2023-04-24T05:16:38.830Z,6.95
2023-04-24T05:19:09.095Z,7.50
2023-04-24T05:21:43.910Z,7.70
2023-04-24T05:24:16.914Z,5.25
2023-04-24T05:27:08.306Z,7.05
2023-04-24T05:29:43.640Z,8.70
2023-04-24T05:32:13.510Z,8.40
2023-04-24T05:34:43.084Z,11.30
2023-04-24T05:37:13.697Z,7.70
2023-04-24T05:39:44.697Z,9.70
2023-04-24T05:42:13.273Z,9.27
2023-04-24T05:44:41.421Z,7.10
2023-04-24T05:47:11.143Z,7.97
2023-04-24T05:49:40.892Z,13.00
2023-04-24T05:52:10.740Z,6.53
2023-04-24T05:54:40.502Z,9.40
2023-04-24T05:57:12.916Z,10.68
2023-04-24T05:59:55.017Z,9.75
2023-04-24T06:02:24.521Z,8.45
2023-04-24T06:04:54.873Z,16.58
2023-04-24T06:07:28.275Z,8.70
2023-04-24T06:09:56.848Z,11.88
2023-04-24T06:12:28.851Z,9.75
2023-04-24T06:15:02.313Z,10.13
2023-04-24T06:17:51.716Z,10.40
2023-04-24T06:20:22.844Z,12.68
2023-04-24T06:22:53.527Z,9.90
2023-04-24T06:25:23.121Z,13.00
2023-04-24T06:27:55.452Z,7.10
2023-04-24T06:30:25.729Z,10.57
2023-04-24T06:32:55.847Z,14.57
2023-04-24T06:35:28.076Z,12.60
2023-04-24T06:37:58.431Z,10.65
2023-04-24T06:40:27.106Z,10.52
2023-04-24T06:43:00.383Z,10.77
2023-04-24T06:45:30.537Z,10.38
2023-04-24T06:48:00.440Z,11.05
2023-04-24T06:50:30.049Z,10.05
2023-04-24T06:53:00.267Z,11.48
2023-04-24T06:55:30.147Z,8.13
2023-04-24T06:58:00.292Z,9.15
2023-04-24T07:00:28.654Z,9.10
2023-04-24T07:02:57.478Z,12.90
2023-04-24T07:05:27.171Z,13.93
2023-04-24T07:07:58.034Z,8.40
2023-04-24T07:10:30.076Z,10.80
2023-04-24T07:13:03.209Z,5.72
2023-04-24T07:15:33.723Z,9.90
2023-04-24T07:18:05.580Z,9.85
2023-04-24T07:20:35.402Z,7.40
2023-04-24T07:23:05.051Z,7.22
2023-04-24T07:25:34.861Z,8.20
2023-04-24T07:28:06.815Z,6.95
2023-04-24T07:30:35.008Z,7.47
2023-04-24T07:33:05.056Z,8.75
2023-04-24T07:35:33.237Z,7.38
2023-04-24T07:38:02.941Z,5.55
2023-04-24T07:40:31.279Z,5.22
2023-04-24T07:43:02.416Z,8.98
2023-04-24T07:45:32.242Z,7.68
2023-04-24T07:48:02.104Z,8.95
2023-04-24T07:50:31.926Z,6.85
2023-04-24T07:53:02.688Z,7.60
2023-04-24T07:55:32.203Z,7.25
2023-04-24T07:58:01.995Z,5.82
2023-04-24T08:00:31.584Z,6.13
2023-04-24T08:03:02.457Z,7.10
2023-04-24T08:05:32.136Z,5.97
2023-04-24T08:08:03.084Z,5.78
2023-04-24T08:10:31.417Z,3.70
2023-04-24T08:12:59.708Z,5.45
2023-04-24T08:15:32.941Z,6.10
2023-04-24T08:18:01.421Z,4.90
2023-04-24T08:20:31.021Z,5.05
2023-04-24T08:22:59.488Z,4.82
2023-04-24T08:25:30.128Z,4.10
2023-04-24T08:27:59.780Z,3.63
2023-04-24T08:30:32.529Z,2.75
2023-04-24T08:33:02.202Z,3.50
2023-04-24T08:35:33.069Z,5.00
2023-04-24T08:38:01.264Z,3.53
2023-04-24T08:40:32.046Z,3.67
2023-04-24T08:43:01.443Z,4.10
2023-04-24T08:45:31.304Z,3.17
2023-04-24T08:48:02.591Z,4.40
2023-04-24T08:50:33.874Z,4.32
2023-04-24T08:53:05.097Z,4.07
2023-04-24T08:55:38.518Z,2.60
2023-04-24T08:58:08.781Z,4.22
2023-04-24T09:00:42.110Z,4.97
2023-04-24T09:03:13.127Z,5.25
2023-04-24T09:05:46.750Z,3.30
2023-04-24T09:08:18.159Z,3.70
2023-04-24T09:10:47.600Z,3.80
2023-04-24T09:13:18.387Z,2.65
2023-04-24T09:15:49.300Z,4.18
2023-04-24T09:18:18.677Z,2.28
2023-04-24T09:21:05.250Z,3.92
2023-04-24T09:23:36.418Z,3.60
2023-04-24T09:26:06.946Z,2.65
2023-04-24T09:28:38.736Z,2.08
2023-04-24T09:31:11.856Z,3.92
2023-04-24T09:33:41.785Z,2.90
2023-04-24T09:36:10.692Z,2.50
2023-04-24T09:38:40.765Z,2.60
2023-04-24T09:41:15.282Z,3.15
2023-04-24T09:43:47.511Z,3.25
2023-04-24T09:46:22.544Z,1.70
2023-04-24T09:48:52.078Z,1.48
2023-04-24T09:51:38.316Z,3.08
2023-04-24T09:54:14.164Z,1.35
2023-04-24T09:56:47.298Z,1.25
2023-04-24T09:59:18.433Z,1.20
2023-04-24T10:01:51.718Z,3.42
2023-04-24T10:04:26.569Z,2.17
2023-04-24T10:06:57.685Z,1.27
2023-04-24T10:09:30.086Z,2.03
2023-04-24T10:11:58.364Z,1.90
2023-04-24T10:14:29.630Z,2.33
2023-04-24T10:17:00.410Z,1.92
2023-04-24T10:19:30.211Z,1.77
2023-04-24T10:22:00.402Z,1.02
2023-04-24T10:24:30.018Z,1.48
2023-04-24T10:26:59.020Z,1.60
2023-04-24T10:29:29.153Z,0.52
2023-04-24T10:31:59.955Z,1.73
2023-04-24T10:34:29.807Z,2.15
2023-04-24T10:36:59.370Z,2.30
2023-04-24T10:39:33.024Z,0.77
2023-04-24T10:42:02.494Z,2.05
2023-04-24T10:44:39.222Z,3.50
2023-04-24T10:47:15.824Z,1.85
2023-04-24T10:49:46.647Z,2.95
2023-04-24T10:52:17.825Z,1.85
2023-04-24T10:54:49.461Z,2.30
2023-04-24T10:57:31.733Z,1.23
2023-04-24T11:00:19.822Z,2.88
2023-04-24T11:02:51.784Z,1.92
2023-04-24T11:05:23.315Z,2.63
2023-04-24T11:08:15.997Z,2.92
2023-04-24T11:10:59.457Z,3.28
2023-04-24T11:13:34.460Z,2.03
2023-04-24T11:16:17.732Z,1.55
2023-04-24T11:18:51.200Z,2.95
2023-04-24T11:21:20.023Z,4.13
2023-04-24T11:26:25.941Z,3.70
2023-04-24T11:28:55.541Z,1.58
2023-04-24T11:31:43.439Z,2.88
2023-04-24T11:34:16.405Z,2.90
2023-04-24T11:36:46.419Z,4.63
2023-04-24T11:39:15.956Z,1.98
2023-04-24T11:41:45.472Z,4.10
2023-04-24T11:44:17.136Z,4.25
2023-04-24T11:46:45.305Z,6.45
2023-04-24T11:49:16.174Z,9.32
2023-04-24T11:51:53.107Z,7.00
2023-04-24T11:54:25.090Z,3.97
2023-04-24T11:56:53.266Z,3.53
2023-04-24T11:59:23.976Z,5.65
2023-04-24T12:01:53.329Z,4.75
2023-04-24T12:04:23.144Z,5.93
2023-04-24T12:07:02.263Z,5.40
2023-04-24T12:09:44.311Z,5.28
2023-04-24T12:12:14.402Z,4.38
2023-04-24T12:14:51.773Z,4.45
2023-04-24T12:17:26.486Z,2.17
2023-04-24T12:20:02.657Z,4.20
2023-04-24T12:22:47.530Z,3.03
2023-04-24T12:25:16.828Z,3.75
2023-04-24T12:27:48.145Z,2.95
2023-04-24T12:30:19.660Z,3.72
2023-04-24T12:32:50.009Z,11.98
2023-04-24T12:35:26.160Z,5.60
2023-04-24T12:37:55.959Z,5.45
2023-04-24T12:40:28.549Z,4.80
2023-04-24T12:42:58.210Z,4.47
2023-04-24T12:45:28.788Z,3.75
2023-04-24T12:47:57.316Z,4.25
2023-04-24T12:50:28.044Z,7.90
2023-04-24T12:52:57.453Z,6.18
2023-04-24T12:55:26.277Z,3.63
2023-04-24T12:57:56.551Z,7.07
2023-04-24T13:00:27.642Z,8.13
2023-04-24T13:02:58.056Z,8.85
2023-04-24T13:05:27.997Z,6.93
2023-04-24T13:07:57.384Z,7.57
2023-04-24T13:10:28.120Z,4.00
2023-04-24T13:12:57.938Z,8.40
2023-04-24T13:15:29.241Z,8.75
2023-04-24T13:17:58.816Z,5.28
2023-04-24T13:20:29.810Z,7.53
2023-04-24T13:22:58.314Z,9.40
2023-04-24T13:25:28.008Z,5.43
2023-04-24T13:27:57.950Z,7.10
2023-04-24T13:30:28.999Z,11.57
2023-04-24T13:32:58.873Z,6.30
2023-04-24T13:35:30.175Z,12.57
2023-04-24T13:37:58.317Z,10.20
2023-04-24T13:40:26.594Z,7.63
2023-04-24T13:42:54.760Z,16.17
2023-04-24T13:45:25.889Z,10.00
2023-04-24T13:47:55.982Z,11.95
2023-04-24T13:50:26.668Z,9.98
2023-04-24T13:52:57.695Z,10.30
2023-04-24T13:55:28.710Z,6.82
2023-04-24T13:57:58.185Z,11.23
2023-04-24T14:00:28.397Z,8.93
2023-04-24T14:02:57.894Z,12.52
2023-04-24T14:05:28.642Z,10.93
2023-04-24T14:07:58.412Z,7.13
2023-04-24T14:10:28.174Z,12.02
2023-04-24T14:12:56.511Z,12.23
2023-04-24T14:15:26.019Z,12.98
2023-04-24T14:17:55.901Z,8.13
2023-04-24T14:22:54.309Z,20.27
2023-04-24T14:25:25.095Z,11.38
2023-04-24T14:27:54.472Z,17.50
2023-04-24T14:30:24.212Z,13.30
2023-04-24T14:32:54.035Z,6.15
2023-04-24T14:35:25.325Z,12.45
2023-04-24T14:37:54.615Z,11.23
2023-04-24T14:45:28.944Z,4.82
2023-04-24T14:47:58.731Z,6.05
2023-04-24T14:50:30.407Z,14.23
2023-04-24T14:53:00.289Z,10.27
2023-04-24T14:55:31.456Z,10.43
2023-04-24T14:58:01.009Z,10.50
2023-04-24T15:00:29.440Z,11.73
2023-04-24T15:02:59.527Z,7.78
2023-04-24T15:05:28.291Z,6.18
2023-04-24T15:10:26.515Z,5.43
2023-04-24T15:12:57.484Z,11.73
2023-04-24T15:15:27.505Z,6.13
2023-04-24T15:17:58.574Z,9.70
2023-04-24T15:20:28.055Z,4.82
2023-04-24T15:22:58.547Z,4.10
2023-04-24T15:25:27.922Z,5.80
2023-04-24T15:28:01.121Z,4.60
2023-04-24T15:30:31.498Z,5.78
2023-04-24T15:33:01.353Z,7.90
2023-04-24T15:35:30.084Z,8.50
2023-04-24T15:37:59.549Z,5.05
2023-04-24T15:40:28.666Z,5.78
2023-04-24T15:42:59.447Z,7.50
2023-04-24T15:45:29.105Z,5.57
2023-04-24T15:47:58.508Z,6.57
2023-04-24T15:50:27.992Z,3.70
2023-04-24T15:52:58.535Z,2.97
2023-04-24T15:55:28.896Z,4.85
2023-04-24T15:58:01.241Z,4.57
2023-04-24T16:00:34.217Z,4.15
2023-04-24T16:03:03.279Z,2.47
2023-04-24T16:05:32.701Z,4.85
2023-04-24T16:08:01.129Z,8.07
2023-04-24T16:10:29.716Z,7.82
2023-04-24T16:13:03.557Z,4.00
2023-04-24T16:15:32.074Z,4.43
2023-04-24T16:18:01.444Z,5.75
2023-04-24T16:20:30.022Z,7.40
2023-04-24T16:22:58.190Z,11.05
2023-04-24T16:25:27.746Z,5.97
2023-04-24T16:27:57.235Z,4.97
2023-04-24T16:30:27.949Z,3.55
2023-04-24T16:32:57.243Z,3.58
2023-04-24T16:35:25.468Z,5.07
2023-04-24T16:37:55.898Z,3.42
2023-04-24T16:40:24.050Z,4.00
2023-04-24T16:42:52.850Z,1.33
2023-04-24T16:45:23.007Z,5.25
2023-04-24T16:47:55.335Z,6.15
2023-04-24T16:50:24.676Z,5.28
2023-04-24T16:52:55.635Z,4.68
2023-04-24T16:55:25.179Z,4.47
2023-04-24T16:57:54.527Z,3.35
2023-04-24T17:00:23.123Z,5.40
2023-04-24T17:02:53.889Z,6.32
2023-04-24T17:05:23.435Z,5.90
2023-04-24T17:07:53.028Z,4.50
2023-04-24T17:10:21.554Z,4.07
2023-04-24T17:12:50.015Z,3.58
2023-04-24T17:15:19.634Z,3.35
2023-04-24T17:17:51.500Z,2.10
2023-04-24T17:20:23.937Z,2.72
2023-04-24T17:22:53.652Z,4.65
2023-04-24T17:25:23.344Z,2.30
2023-04-24T17:27:53.664Z,5.18
2023-04-24T17:30:23.032Z,3.00
2023-04-24T17:32:52.479Z,3.03
2023-04-24T17:35:23.405Z,2.92
2023-04-24T17:37:51.722Z,4.38
2023-04-24T17:40:21.053Z,7.88
2023-04-24T17:42:50.548Z,6.90
2023-04-24T17:45:19.977Z,1.45
2023-04-24T17:47:50.625Z,2.60
2023-04-24T17:50:22.458Z,5.65
2023-04-24T17:52:51.924Z,6.57
2023-04-24T17:55:21.659Z,3.03
2023-04-24T17:57:49.958Z,4.05
2023-04-24T18:00:20.798Z,5.55
2023-04-24T18:02:52.376Z,4.70
2023-04-24T18:05:23.704Z,3.97
2023-04-24T18:07:54.464Z,6.45
2023-04-24T18:10:24.765Z,3.28
2023-04-24T18:12:54.838Z,5.47
2023-04-24T18:15:24.777Z,3.03
2023-04-24T18:20:25.103Z,5.60
2023-04-24T18:22:54.544Z,3.90
2023-04-24T18:25:26.781Z,4.90
2023-04-24T18:27:55.958Z,2.83
2023-04-24T18:30:26.242Z,3.10
2023-04-24T18:32:57.294Z,5.85
2023-04-24T18:35:28.011Z,4.57
2023-04-24T18:37:57.758Z,4.45
2023-04-24T18:40:26.514Z,7.22
2023-04-24T18:45:24.291Z,2.75
2023-04-24T18:47:52.728Z,3.70
2023-04-24T18:50:22.443Z,4.65
2023-04-24T18:52:54.463Z,6.70
2023-04-24T18:55:24.070Z,6.85
2023-04-24T18:57:53.367Z,4.45
2023-04-24T19:00:22.997Z,3.90
2023-04-24T19:02:53.696Z,4.90
2023-04-24T19:05:23.048Z,5.13
2023-04-24T19:07:54.963Z,4.78
2023-04-24T19:10:23.119Z,4.75
2023-04-24T19:12:56.554Z,7.25
2023-04-24T19:15:25.212Z,5.60
2023-04-24T19:17:55.802Z,5.47
2023-04-24T19:20:26.202Z,6.03
2023-04-24T19:22:55.810Z,5.40
2023-04-24T19:25:24.448Z,8.27
2023-04-24T19:27:53.846Z,6.25
2023-04-24T19:30:23.388Z,7.47
2023-04-24T19:32:52.819Z,3.80
2023-04-24T19:35:21.170Z,6.18
2023-04-24T19:37:49.897Z,3.75
2023-04-24T19:40:22.045Z,7.93
2023-04-24T19:42:50.213Z,6.85
2023-04-24T19:45:18.657Z,3.85
2023-04-24T19:47:47.604Z,8.77
2023-04-24T19:50:17.024Z,5.90
2023-04-24T19:52:45.273Z,5.13
2023-04-24T19:55:14.814Z,8.82
2023-04-24T19:57:44.352Z,2.83
2023-04-24T20:00:14.156Z,5.20
2023-04-24T20:02:43.910Z,3.90
2023-04-24T20:05:13.792Z,4.55
2023-04-24T20:07:43.268Z,5.65
2023-04-24T20:10:13.214Z,6.35
2023-04-24T20:12:44.014Z,7.95
2023-04-24T20:15:13.501Z,6.78
2023-04-24T20:17:41.685Z,7.38
2023-04-24T20:20:13.756Z,7.18
2023-04-24T20:22:43.208Z,6.13
2023-04-24T20:25:13.871Z,5.28
2023-04-24T20:27:43.370Z,8.38
2023-04-24T20:30:13.892Z,5.90
2023-04-24T20:32:43.395Z,8.98
2023-04-24T20:35:14.220Z,5.25
2023-04-24T20:37:42.490Z,7.68
2023-04-24T20:40:15.588Z,7.22
2023-04-24T20:42:46.959Z,4.95
2023-04-24T20:45:17.893Z,7.03
2023-04-24T20:47:50.028Z,2.33
2023-04-24T20:50:20.563Z,7.88
2023-04-24T20:52:49.962Z,4.03
2023-04-24T20:55:18.337Z,10.07
2023-04-24T20:57:49.141Z,6.30
2023-04-24T21:00:19.250Z,4.45
2023-04-24T21:02:48.664Z,6.47
2023-04-24T21:05:17.601Z,3.08
2023-04-24T21:07:47.409Z,7.70
2023-04-24T21:10:16.847Z,4.97
2023-04-24T21:12:44.968Z,9.20
2023-04-24T21:15:16.071Z,6.90
2023-04-24T21:17:46.080Z,7.80
2023-04-24T21:20:16.115Z,7.57
2023-04-24T21:25:15.283Z,10.32
2023-04-24T21:27:44.784Z,6.05
2023-04-24T21:30:15.059Z,6.43
2023-04-24T21:32:43.337Z,7.95
2023-04-24T21:35:13.834Z,6.20
2023-04-24T21:37:41.983Z,8.82
2023-04-24T21:40:13.598Z,10.13
2023-04-24T21:42:43.675Z,10.00
2023-04-24T21:45:15.041Z,9.50
2023-04-24T21:47:43.303Z,9.50
2023-04-24T21:50:12.912Z,11.15
2023-04-24T21:52:42.344Z,8.85
2023-04-24T21:55:10.917Z,5.82
2023-04-24T21:57:39.237Z,7.70
2023-04-24T22:00:11.472Z,10.93
2023-04-24T22:02:43.109Z,12.57
2023-04-24T22:05:15.711Z,13.38
2023-04-24T22:07:48.437Z,15.07
2023-04-24T22:10:21.063Z,9.30
2023-04-24T22:12:50.604Z,12.32
2023-04-24T22:15:19.988Z,14.15
2023-04-24T22:17:49.991Z,11.90
2023-04-24T22:20:21.375Z,5.68
2023-04-24T22:22:50.777Z,10.07
2023-04-24T22:25:20.863Z,4.15
2023-04-24T22:27:50.685Z,8.07
2023-04-24T22:30:21.447Z,9.65
2023-04-24T22:32:51.140Z,12.93
2023-04-24T22:35:21.858Z,5.80
2023-04-24T22:37:55.896Z,6.70
2023-04-24T22:40:26.666Z,6.00
2023-04-24T22:42:56.080Z,5.28
2023-04-24T22:45:26.166Z,5.25
2023-04-24T22:50:25.516Z,11.20
2023-04-24T22:52:54.816Z,7.82
2023-04-24T22:55:25.403Z,3.63
2023-04-24T22:57:53.560Z,8.88
2023-04-24T23:00:23.014Z,11.02
2023-04-24T23:02:54.343Z,8.60
2023-04-24T23:05:25.213Z,13.23
2023-04-24T23:07:56.140Z,8.35
2023-04-24T23:10:24.392Z,5.30
2023-04-24T23:12:52.627Z,15.32
2023-04-24T23:15:20.928Z,10.75
2023-04-24T23:17:51.533Z,5.47
2023-04-24T23:20:25.089Z,10.32
2023-04-24T23:22:53.461Z,4.75
2023-04-24T23:25:22.894Z,9.23
2023-04-24T23:27:52.649Z,5.32
2023-04-24T23:30:22.044Z,6.90
2023-04-24T23:32:52.723Z,4.75
2023-04-24T23:35:20.887Z,4.78
2023-04-24T23:37:51.897Z,8.32
2023-04-24T23:40:21.470Z,6.60
2023-04-24T23:42:59.724Z,15.48
2023-04-24T23:45:35.607Z,7.05
2023-04-24T23:48:04.530Z,15.45
2023-04-24T23:53:04.743Z,5.25
2023-04-24T23:55:33.024Z,9.70
2023-04-24T23:58:01.241Z,6.38
